createdAt,value
2018-06-19T00:00:07.554Z,20.50
2018-06-19T00:02:35.322Z,20.50
2018-06-19T00:05:03.082Z,20.40
2018-06-19T00:07:30.176Z,20.40
2018-06-19T00:09:57.180Z,20.40
2018-06-19T00:12:24.244Z,20.40
2018-06-19T00:14:51.194Z,20.40
2018-06-19T00:17:18.181Z,20.40
2018-06-19T00:19:45.204Z,20.30
2018-06-19T00:22:13.240Z,20.30
2018-06-19T00:24:40.924Z,20.40
2018-06-19T00:27:08.653Z,20.40
2018-06-19T00:29:35.594Z,20.40
2018-06-19T00:32:02.544Z,20.40
2018-06-19T00:34:29.513Z,20.40
2018-06-19T00:36:57.156Z,20.30
2018-06-19T00:39:24.113Z,20.30
2018-06-19T00:41:51.752Z,20.40
2018-06-19T00:44:18.706Z,20.30
2018-06-19T00:46:45.621Z,20.30
2018-06-19T00:49:12.591Z,20.30
2018-06-19T00:51:39.556Z,20.30
2018-06-19T00:54:06.476Z,20.40
2018-06-19T00:56:41.533Z,20.30
2018-06-19T00:59:08.406Z,20.30
2018-06-19T01:01:35.420Z,20.30
2018-06-19T01:04:02.343Z,20.40
2018-06-19T01:06:29.334Z,20.40
2018-06-19T01:08:57.164Z,20.30
2018-06-19T01:11:24.079Z,20.30
2018-06-19T01:13:51.081Z,20.30
2018-06-19T01:16:18.098Z,20.30
2018-06-19T01:18:44.986Z,20.30
2018-06-19T01:21:12.738Z,20.20
2018-06-19T01:23:39.651Z,20.20
2018-06-19T01:26:06.656Z,20.20
2018-06-19T01:28:33.621Z,20.20
2018-06-19T01:31:00.586Z,20.10
2018-06-19T01:33:27.493Z,20.00
2018-06-19T01:35:54.473Z,20.00
2018-06-19T01:38:21.461Z,20.00
2018-06-19T01:40:48.396Z,19.90
2018-06-19T01:43:15.328Z,19.90
2018-06-19T01:45:42.230Z,19.80
2018-06-19T01:48:09.147Z,19.80
2018-06-19T01:50:36.145Z,19.70
2018-06-19T01:53:03.117Z,19.70
2018-06-19T01:55:30.007Z,19.60
2018-06-19T01:57:57.071Z,19.50
2018-06-19T02:00:24.041Z,19.50
2018-06-19T02:02:51.123Z,19.50
2018-06-19T02:05:18.823Z,19.40
2018-06-19T02:07:45.768Z,19.30
2018-06-19T02:10:13.508Z,19.30
2018-06-19T02:12:40.422Z,19.20
2018-06-19T02:15:07.412Z,19.30
2018-06-19T02:17:35.053Z,19.20
2018-06-19T02:20:02.005Z,19.20
2018-06-19T02:22:28.941Z,19.20
2018-06-19T02:24:55.922Z,19.10
2018-06-19T02:27:22.920Z,19.10
2018-06-19T02:29:49.944Z,19.10
2018-06-19T02:32:16.884Z,19.10
2018-06-19T02:34:43.882Z,19.00
2018-06-19T02:37:10.917Z,18.90
2018-06-19T02:39:37.945Z,18.90
2018-06-19T02:42:04.913Z,18.90
2018-06-19T02:44:31.813Z,18.80
2018-06-19T02:46:58.823Z,18.80
2018-06-19T02:49:25.725Z,18.80
2018-06-19T02:51:52.710Z,18.80
2018-06-19T02:54:19.621Z,18.80
2018-06-19T02:56:46.666Z,18.80
2018-06-19T02:59:13.630Z,18.70
2018-06-19T03:01:40.581Z,18.70
2018-06-19T03:04:07.537Z,18.70
2018-06-19T03:06:34.437Z,18.70
2018-06-19T03:09:01.409Z,18.60
2018-06-19T03:11:28.435Z,18.70
2018-06-19T03:13:55.437Z,18.60
2018-06-19T03:16:23.107Z,18.70
2018-06-19T03:18:50.081Z,18.70
2018-06-19T03:21:17.042Z,18.70
2018-06-19T03:23:44.050Z,18.70
2018-06-19T03:26:11.696Z,18.60
2018-06-19T03:28:38.840Z,18.60
2018-06-19T03:31:05.761Z,18.60
2018-06-19T03:33:32.697Z,18.60
2018-06-19T03:35:59.648Z,18.60
2018-06-19T03:38:26.551Z,18.60
2018-06-19T03:40:54.256Z,18.50
2018-06-19T03:43:21.203Z,18.50
2018-06-19T03:45:48.164Z,18.50
2018-06-19T03:48:15.072Z,18.60
2018-06-19T03:50:42.100Z,18.60
2018-06-19T03:53:09.820Z,18.60
2018-06-19T03:55:36.861Z,18.60
2018-06-19T03:58:03.818Z,18.50
2018-06-19T04:00:30.803Z,18.50
2018-06-19T04:02:58.417Z,18.60
2018-06-19T04:05:25.443Z,18.60
2018-06-19T04:07:52.320Z,18.60
2018-06-19T04:10:19.225Z,18.60
2018-06-19T04:12:46.174Z,18.60
2018-06-19T04:15:13.045Z,18.60
2018-06-19T04:17:40.777Z,18.60
2018-06-19T04:20:07.643Z,18.70
2018-06-19T04:22:34.568Z,18.70
2018-06-19T04:25:02.187Z,18.80
2018-06-19T04:27:43.167Z,18.80
2018-06-19T04:30:11.685Z,18.90
2018-06-19T04:32:38.644Z,18.90
2018-06-19T04:35:05.589Z,19.10
2018-06-19T04:37:33.301Z,20.00
2018-06-19T04:40:01.048Z,20.50
2018-06-19T04:42:27.977Z,20.50
2018-06-19T04:44:54.975Z,21.90
2018-06-19T04:47:21.890Z,23.50
2018-06-19T04:49:48.984Z,23.30
2018-06-19T04:52:15.844Z,24.70
2018-06-19T04:54:43.557Z,27.20
2018-06-19T04:57:11.313Z,25.90
2018-06-19T04:59:38.320Z,25.90
2018-06-19T05:02:05.301Z,26.10
2018-06-19T05:04:32.319Z,26.90
2018-06-19T05:06:59.277Z,29.70
2018-06-19T05:09:26.383Z,29.30
2018-06-19T05:11:53.637Z,30.30
2018-06-19T05:14:20.513Z,33.30
2018-06-19T05:16:47.472Z,33.80
2018-06-19T05:19:14.473Z,32.50
2018-06-19T05:21:41.422Z,33.00
2018-06-19T05:24:08.364Z,32.30
2018-06-19T05:26:36.074Z,34.50
2018-06-19T05:29:03.065Z,34.50
2018-06-19T05:31:30.017Z,32.70
2018-06-19T05:33:56.920Z,30.40
2018-06-19T05:36:23.866Z,28.70
2018-06-19T05:38:50.744Z,27.30
2018-06-19T05:41:17.699Z,26.50
2018-06-19T05:43:46.101Z,25.70
2018-06-19T05:46:13.772Z,25.00
2018-06-19T05:48:40.717Z,24.90
2018-06-19T05:51:08.416Z,24.20
2018-06-19T05:53:35.333Z,24.20
2018-06-19T05:56:02.291Z,24.00
2018-06-19T05:58:29.219Z,23.90
2018-06-19T06:00:56.265Z,23.70
2018-06-19T06:03:23.511Z,23.50
2018-06-19T06:05:50.796Z,23.60
2018-06-19T06:08:17.737Z,23.70
2018-06-19T06:10:44.798Z,23.60
2018-06-19T06:13:11.761Z,23.50
2018-06-19T06:15:39.305Z,23.10
2018-06-19T06:18:07.239Z,23.00
2018-06-19T06:20:36.250Z,23.00
2018-06-19T06:23:04.563Z,22.80
2018-06-19T06:25:34.344Z,22.60
2018-06-19T06:28:02.061Z,22.60
2018-06-19T06:30:29.357Z,22.60
2018-06-19T06:32:56.307Z,22.50
2018-06-19T06:35:23.360Z,22.50
2018-06-19T06:37:50.347Z,22.50
2018-06-19T06:40:17.569Z,22.70
2018-06-19T06:42:44.553Z,22.60
2018-06-19T06:45:11.609Z,22.50
2018-06-19T06:47:38.743Z,22.60
2018-06-19T06:50:05.762Z,22.70
2018-06-19T06:52:32.998Z,22.80
2018-06-19T06:55:00.251Z,23.00
2018-06-19T06:57:27.333Z,23.00
2018-06-19T06:59:54.338Z,22.90
2018-06-19T07:02:22.084Z,22.70
2018-06-19T07:04:49.114Z,22.80
2018-06-19T07:07:16.250Z,22.70
2018-06-19T07:09:43.283Z,23.00
2018-06-19T07:12:10.339Z,23.00
2018-06-19T07:14:37.489Z,22.90
2018-06-19T07:17:05.049Z,23.00
2018-06-19T07:19:32.133Z,23.10
2018-06-19T07:21:59.331Z,23.20
2018-06-19T07:24:26.630Z,23.20
2018-06-19T07:26:53.624Z,23.40
2018-06-19T07:29:20.652Z,23.70
2018-06-19T07:31:47.570Z,23.60
2018-06-19T07:34:14.548Z,23.50
2018-06-19T07:36:41.711Z,23.80
2018-06-19T07:39:09.462Z,24.30
2018-06-19T07:41:36.383Z,24.30
2018-06-19T07:44:03.377Z,24.20
2018-06-19T07:46:30.312Z,24.20
2018-06-19T07:48:57.314Z,24.60
2018-06-19T07:51:24.324Z,24.80
2018-06-19T07:53:51.239Z,25.30
2018-06-19T07:56:18.245Z,25.60
2018-06-19T07:58:45.185Z,25.10
2018-06-19T08:01:12.151Z,25.00
2018-06-19T08:03:39.683Z,24.90
2018-06-19T08:06:06.717Z,25.40
2018-06-19T08:08:34.745Z,26.70
2018-06-19T08:11:01.858Z,26.70
2018-06-19T08:13:31.078Z,26.90
2018-06-19T08:15:59.028Z,26.50
2018-06-19T08:18:26.029Z,27.40
2018-06-19T08:20:53.027Z,27.50
2018-06-19T08:23:22.287Z,27.70
2018-06-19T08:25:52.591Z,26.60
2018-06-19T08:28:19.662Z,26.20
2018-06-19T08:30:47.392Z,25.70
2018-06-19T08:33:18.647Z,25.70
2018-06-19T08:35:52.140Z,25.60
2018-06-19T08:38:19.919Z,26.80
2018-06-19T08:40:48.685Z,27.10
2018-06-19T08:43:16.763Z,26.80
2018-06-19T08:45:52.537Z,26.20
2018-06-19T08:48:25.737Z,27.30
2018-06-19T08:50:55.901Z,28.30
2018-06-19T08:53:24.747Z,28.40
2018-06-19T08:55:51.726Z,28.30
2018-06-19T08:58:18.744Z,29.50
2018-06-19T09:00:45.662Z,31.00
2018-06-19T09:03:12.803Z,32.00
2018-06-19T09:05:39.857Z,31.00
2018-06-19T09:08:06.997Z,30.10
2018-06-19T09:10:34.075Z,29.20
2018-06-19T09:13:01.041Z,28.80
2018-06-19T09:15:29.628Z,29.70
2018-06-19T09:17:58.903Z,29.90
2018-06-19T09:20:27.786Z,29.30
2018-06-19T09:23:07.579Z,30.20
2018-06-19T09:25:36.523Z,30.90
2018-06-19T09:28:06.511Z,30.90
2018-06-19T09:30:35.301Z,30.30
2018-06-19T09:33:04.355Z,29.00
2018-06-19T09:35:32.518Z,28.90
2018-06-19T09:38:02.072Z,28.40
2018-06-19T09:40:30.814Z,29.40
2018-06-19T09:43:01.298Z,29.30
2018-06-19T09:45:29.947Z,29.40
2018-06-19T09:48:00.008Z,29.50
2018-06-19T09:50:27.149Z,29.40
2018-06-19T09:52:54.404Z,29.20
2018-06-19T09:55:21.365Z,28.70
2018-06-19T09:57:48.417Z,28.30
2018-06-19T10:00:15.424Z,27.90
2018-06-19T10:02:42.548Z,27.50
2018-06-19T10:05:09.510Z,27.20
2018-06-19T10:07:37.106Z,27.00
2018-06-19T10:10:06.435Z,26.70
2018-06-19T10:12:37.454Z,26.70
2018-06-19T10:15:06.978Z,26.40
2018-06-19T10:17:35.565Z,26.20
2018-06-19T10:20:05.254Z,26.20
2018-06-19T10:22:34.016Z,26.30
2018-06-19T10:25:02.805Z,26.40
2018-06-19T10:27:34.726Z,26.40
2018-06-19T10:30:06.655Z,26.40
2018-06-19T10:32:36.703Z,26.50
2018-06-19T10:35:06.852Z,26.40
2018-06-19T10:37:35.998Z,26.50
2018-06-19T10:40:05.533Z,26.70
2018-06-19T10:42:33.656Z,26.60
2018-06-19T10:45:04.918Z,26.40
2018-06-19T10:47:35.021Z,26.40
2018-06-19T10:50:06.184Z,26.20
2018-06-19T10:52:36.522Z,26.20
2018-06-19T10:55:06.744Z,26.30
2018-06-19T10:57:35.789Z,26.30
2018-06-19T11:00:06.647Z,26.40
2018-06-19T11:02:39.028Z,26.40
2018-06-19T11:05:06.795Z,26.50
2018-06-19T11:07:34.651Z,26.60
2018-06-19T11:10:09.886Z,26.60
2018-06-19T11:15:24.419Z,26.40
2018-06-19T11:17:52.259Z,26.40
2018-06-19T11:20:20.202Z,26.50
2018-06-19T11:22:48.191Z,26.40
2018-06-19T11:25:15.200Z,26.50
2018-06-19T11:27:42.803Z,26.50
2018-06-19T11:30:11.034Z,26.40
2018-06-19T11:32:38.723Z,26.40
2018-06-19T11:35:05.828Z,26.40
2018-06-19T11:37:34.857Z,26.40
2018-06-19T11:40:01.956Z,26.60
2018-06-19T11:42:29.386Z,26.70
2018-06-19T11:44:56.636Z,26.80
2018-06-19T11:47:24.577Z,27.00
2018-06-19T11:49:51.630Z,27.00
2018-06-19T11:52:18.674Z,27.10
2018-06-19T11:54:46.158Z,27.30
2018-06-19T11:57:17.677Z,27.40
2018-06-19T11:59:45.810Z,27.50
2018-06-19T12:02:16.805Z,27.40
2018-06-19T12:04:45.536Z,27.50
2018-06-19T12:07:16.809Z,27.50
2018-06-19T12:09:46.185Z,27.60
2018-06-19T12:12:18.214Z,28.00
2018-06-19T12:14:47.045Z,28.00
2018-06-19T12:17:14.278Z,28.30
2018-06-19T12:19:45.075Z,28.50
2018-06-19T12:22:12.399Z,28.80
2018-06-19T12:24:49.921Z,29.30
2018-06-19T12:27:28.755Z,29.40
2018-06-19T12:30:07.738Z,29.60
2018-06-19T12:32:46.899Z,30.10
2018-06-19T12:35:26.839Z,30.30
2018-06-19T12:38:02.615Z,30.40
2018-06-19T12:40:40.018Z,30.60
2018-06-19T12:43:13.252Z,29.70
2018-06-19T12:45:44.708Z,29.70
2018-06-19T12:48:17.608Z,29.70
2018-06-19T12:51:10.452Z,29.30
2018-06-19T12:53:58.688Z,29.00
2018-06-19T12:56:38.991Z,28.80
2018-06-19T12:59:16.865Z,28.70
2018-06-19T13:01:48.310Z,28.60
2018-06-19T13:04:32.091Z,28.60
2018-06-19T13:07:11.485Z,28.60
2018-06-19T13:09:48.673Z,28.60
2018-06-19T13:12:32.857Z,28.00
2018-06-19T13:15:01.369Z,28.00
2018-06-19T13:17:41.629Z,27.90
2018-06-19T13:20:37.487Z,28.30
2018-06-19T13:23:05.969Z,28.30
2018-06-19T13:25:33.034Z,29.10
2018-06-19T13:28:00.383Z,29.60
2018-06-19T13:30:48.071Z,29.90
2018-06-19T13:33:15.232Z,29.90
2018-06-19T13:35:42.275Z,29.60
2018-06-19T13:38:09.688Z,29.70
2018-06-19T13:40:48.828Z,29.70
2018-06-19T13:43:27.982Z,29.70
2018-06-19T13:45:55.403Z,29.20
2018-06-19T13:48:22.643Z,28.90
2018-06-19T13:50:50.006Z,28.90
2018-06-19T13:53:17.174Z,28.80
2018-06-19T13:56:08.270Z,28.90
2018-06-19T13:58:36.793Z,28.80
2018-06-19T14:01:04.074Z,28.60
2018-06-19T14:03:31.272Z,28.40
2018-06-19T14:05:58.541Z,28.50
2018-06-19T14:08:25.868Z,28.50
2018-06-19T14:11:20.024Z,28.50
2018-06-19T14:13:47.554Z,28.50
2018-06-19T14:16:14.824Z,28.60
2018-06-19T14:18:42.283Z,28.60
2018-06-19T14:21:09.361Z,28.60
2018-06-19T14:23:36.553Z,28.50
2018-06-19T14:26:03.782Z,28.40
2018-06-19T14:28:30.823Z,28.40
2018-06-19T14:30:57.859Z,28.30
2018-06-19T14:33:25.539Z,28.10
2018-06-19T14:35:52.500Z,28.10
2018-06-19T14:38:19.466Z,27.90
2018-06-19T14:40:46.475Z,28.00
2018-06-19T14:43:14.131Z,27.90
2018-06-19T14:45:41.850Z,27.80
2018-06-19T14:48:08.817Z,27.80
2018-06-19T14:50:35.755Z,27.90
2018-06-19T14:53:03.588Z,28.20
2018-06-19T14:55:30.567Z,28.10
2018-06-19T14:57:57.483Z,28.40
2018-06-19T15:00:24.567Z,28.30
2018-06-19T15:02:51.531Z,28.40
2018-06-19T15:05:19.322Z,28.20
2018-06-19T15:07:46.393Z,28.20
2018-06-19T15:10:13.365Z,28.30
2018-06-19T15:12:40.394Z,28.40
2018-06-19T15:15:07.353Z,28.20
2018-06-19T15:17:34.433Z,28.20
2018-06-19T15:20:01.358Z,28.30
2018-06-19T15:22:28.366Z,28.40
2018-06-19T15:24:55.325Z,28.50
2018-06-19T15:27:22.231Z,28.40
2018-06-19T15:29:49.949Z,28.30
2018-06-19T15:32:17.696Z,28.40
2018-06-19T15:34:44.687Z,28.40
2018-06-19T15:37:12.458Z,28.40
2018-06-19T15:39:40.184Z,28.40
2018-06-19T15:42:07.178Z,28.40
2018-06-19T15:44:34.173Z,28.30
2018-06-19T15:47:01.186Z,28.30
2018-06-19T15:49:28.901Z,28.20
2018-06-19T15:51:55.906Z,28.20
2018-06-19T15:54:27.580Z,28.30
2018-06-19T15:56:54.734Z,28.20
2018-06-19T15:59:21.662Z,28.20
2018-06-19T16:01:48.635Z,28.20
2018-06-19T16:04:16.117Z,28.10
2018-06-19T16:06:43.181Z,28.00
2018-06-19T16:09:10.151Z,27.90
2018-06-19T16:11:37.922Z,27.80
2018-06-19T16:14:05.737Z,27.80
2018-06-19T16:16:32.746Z,27.90
2018-06-19T16:18:59.693Z,27.80
2018-06-19T16:21:26.671Z,27.80
2018-06-19T16:23:53.661Z,27.60
2018-06-19T16:26:20.654Z,27.60
2018-06-19T16:28:47.725Z,27.50
2018-06-19T16:31:14.628Z,27.50
2018-06-19T16:33:41.615Z,27.40
2018-06-19T16:36:08.618Z,27.30
2018-06-19T16:38:36.385Z,27.20
2018-06-19T16:41:07.047Z,27.20
2018-06-19T16:43:34.743Z,27.20
2018-06-19T16:46:01.717Z,27.20
2018-06-19T16:48:29.389Z,27.20
2018-06-19T16:50:56.403Z,27.20
2018-06-19T16:53:23.297Z,27.20
2018-06-19T16:55:50.303Z,27.20
2018-06-19T16:58:17.482Z,27.20
2018-06-19T17:00:44.432Z,27.10
2018-06-19T17:03:15.938Z,27.10
2018-06-19T17:05:42.937Z,27.10
2018-06-19T17:08:16.407Z,27.00
2018-06-19T17:10:51.668Z,26.90
2018-06-19T17:13:18.710Z,26.80
2018-06-19T17:15:46.437Z,26.60
2018-06-19T17:18:15.093Z,26.60
2018-06-19T17:20:42.134Z,26.60
2018-06-19T17:23:09.053Z,26.50
2018-06-19T17:25:36.178Z,26.40
2018-06-19T17:28:03.602Z,26.40
2018-06-19T17:30:30.550Z,26.40
2018-06-19T17:32:57.537Z,26.40
2018-06-19T17:35:28.156Z,26.30
2018-06-19T17:37:55.353Z,26.40
2018-06-19T17:40:22.361Z,26.40
2018-06-19T17:42:49.340Z,26.40
2018-06-19T17:45:16.309Z,26.20
2018-06-19T17:47:44.164Z,26.20
2018-06-19T17:50:12.069Z,26.10
2018-06-19T17:52:39.065Z,26.20
2018-06-19T17:55:06.119Z,26.10
2018-06-19T17:57:33.829Z,26.20
2018-06-19T18:00:02.530Z,26.20
2018-06-19T18:02:30.572Z,26.20
2018-06-19T18:04:57.834Z,26.20
2018-06-19T18:07:30.082Z,26.20
2018-06-19T18:09:58.028Z,26.20
2018-06-19T18:12:25.020Z,26.10
2018-06-19T18:14:52.139Z,26.10
2018-06-19T18:17:19.897Z,26.00
2018-06-19T18:19:47.956Z,25.90
2018-06-19T18:22:16.563Z,25.90
2018-06-19T18:24:43.643Z,25.90
2018-06-19T18:27:10.604Z,25.80
2018-06-19T18:29:37.570Z,25.80
2018-06-19T18:32:04.490Z,25.80
2018-06-19T18:34:34.238Z,25.70
2018-06-19T18:37:01.120Z,25.70
2018-06-19T18:39:28.228Z,25.60
2018-06-19T18:41:55.190Z,25.60
2018-06-19T18:44:22.100Z,25.50
2018-06-19T18:46:49.465Z,25.50
2018-06-19T18:49:16.492Z,25.50
2018-06-19T18:51:43.483Z,25.40
2018-06-19T18:54:11.193Z,25.20
2018-06-19T18:56:38.129Z,25.10
2018-06-19T18:59:05.154Z,25.10
2018-06-19T19:01:33.465Z,25.10
2018-06-19T19:04:02.040Z,25.00
2018-06-19T19:06:30.274Z,25.00
2018-06-19T19:08:57.208Z,24.90
2018-06-19T19:11:24.187Z,24.90
2018-06-19T19:13:51.201Z,24.80
2018-06-19T19:16:33.032Z,24.70
2018-06-19T19:21:46.819Z,24.60
2018-06-19T19:24:14.266Z,24.40
2018-06-19T19:26:41.431Z,24.40
2018-06-19T19:29:14.481Z,24.40
2018-06-19T19:31:41.623Z,24.30
2018-06-19T19:34:08.651Z,24.20
2018-06-19T19:36:35.693Z,24.10
2018-06-19T19:39:22.235Z,24.10
2018-06-19T19:41:50.006Z,23.90
2018-06-19T19:44:17.072Z,23.80
2018-06-19T19:46:44.931Z,23.80
2018-06-19T19:49:12.599Z,23.70
2018-06-19T19:51:39.695Z,23.70
2018-06-19T19:54:07.666Z,23.60
2018-06-19T19:56:35.272Z,23.40
2018-06-19T19:59:04.056Z,23.40
2018-06-19T20:01:31.070Z,23.30
2018-06-19T20:04:02.065Z,23.30
2018-06-19T20:06:29.125Z,23.30
2018-06-19T20:09:00.360Z,23.20
2018-06-19T20:11:28.164Z,23.20
2018-06-19T20:13:55.088Z,23.20
2018-06-19T20:16:22.138Z,23.20
2018-06-19T20:18:49.107Z,23.20
2018-06-19T20:21:17.807Z,23.20
2018-06-19T20:23:46.694Z,23.20
2018-06-19T20:26:13.630Z,23.20
2018-06-19T20:28:40.624Z,23.20
2018-06-19T20:31:07.566Z,23.10
2018-06-19T20:33:34.722Z,23.10
2018-06-19T20:36:01.632Z,23.20
2018-06-19T20:38:36.928Z,23.10
2018-06-19T20:41:04.630Z,23.00
2018-06-19T20:43:32.155Z,23.00
2018-06-19T20:45:59.443Z,22.90
2018-06-19T20:48:26.349Z,22.90
2018-06-19T20:50:53.361Z,22.80
2018-06-19T20:53:20.253Z,22.90
2018-06-19T20:55:47.229Z,22.80
2018-06-19T20:58:14.201Z,22.80
2018-06-19T21:00:41.161Z,22.80
2018-06-19T21:03:08.251Z,22.70
2018-06-19T21:05:35.165Z,22.70
2018-06-19T21:08:02.920Z,22.60
2018-06-19T21:10:29.943Z,22.60
2018-06-19T21:12:56.864Z,22.60
2018-06-19T21:15:23.839Z,22.60
2018-06-19T21:17:50.854Z,22.50
2018-06-19T21:20:17.964Z,22.50
2018-06-19T21:22:44.876Z,22.50
2018-06-19T21:25:11.855Z,22.50
2018-06-19T21:27:38.784Z,22.40
2018-06-19T21:30:05.798Z,22.40
2018-06-19T21:32:32.786Z,22.40
2018-06-19T21:34:59.765Z,22.40
2018-06-19T21:37:26.730Z,22.30
2018-06-19T21:39:53.673Z,22.30
2018-06-19T21:42:20.647Z,22.30
2018-06-19T21:44:47.613Z,22.30
2018-06-19T21:47:14.618Z,22.20
2018-06-19T21:49:41.615Z,22.20
2018-06-19T21:52:08.620Z,22.20
2018-06-19T21:54:35.641Z,22.20
2018-06-19T21:57:03.401Z,22.00
2018-06-19T21:59:31.109Z,22.10
2018-06-19T22:01:58.134Z,22.00
2018-06-19T22:04:25.108Z,22.00
2018-06-19T22:06:52.027Z,22.00
2018-06-19T22:09:19.037Z,22.00
2018-06-19T22:11:46.701Z,21.90
2018-06-19T22:14:13.734Z,21.90
2018-06-19T22:16:40.685Z,21.90
2018-06-19T22:19:07.696Z,21.90
2018-06-19T22:21:34.764Z,22.00
2018-06-19T22:24:01.725Z,21.90
2018-06-19T22:26:28.832Z,21.90
2018-06-19T22:28:56.244Z,21.80
2018-06-19T22:31:23.414Z,21.80
2018-06-19T22:33:51.098Z,21.80
2018-06-19T22:36:18.102Z,21.80
2018-06-19T22:38:45.033Z,21.80
2018-06-19T22:41:12.018Z,21.80
2018-06-19T22:43:39.666Z,21.80
2018-06-19T22:46:07.405Z,21.70
2018-06-19T22:48:34.346Z,21.70
2018-06-19T22:51:01.266Z,21.70
2018-06-19T22:53:28.312Z,21.70
2018-06-19T22:55:55.283Z,21.70
2018-06-19T22:58:22.268Z,21.70
2018-06-19T23:00:50.034Z,21.60
2018-06-19T23:03:17.047Z,21.60
2018-06-19T23:05:43.993Z,21.60
2018-06-19T23:08:10.898Z,21.60
2018-06-19T23:10:37.877Z,21.60
2018-06-19T23:13:04.803Z,21.60
2018-06-19T23:15:32.344Z,21.60
2018-06-19T23:17:59.398Z,21.70
2018-06-19T23:20:40.980Z,21.60
2018-06-19T23:23:22.975Z,21.60
2018-06-19T23:28:50.367Z,21.50
2018-06-19T23:31:32.559Z,21.60
2018-06-19T23:34:14.279Z,21.60
2018-06-19T23:36:56.560Z,21.60
2018-06-19T23:39:38.651Z,21.60
2018-06-19T23:42:20.768Z,21.60
2018-06-19T23:45:02.141Z,21.60
2018-06-19T23:47:43.671Z,21.60
2018-06-19T23:50:26.109Z,21.60
2018-06-19T23:53:07.941Z,21.60
2018-06-19T23:55:50.688Z,21.60
2018-06-19T23:58:32.640Z,21.60
